createdAt,value
2017-12-09T00:01:03.142Z,95.10
2017-12-09T00:03:30.614Z,94.90
2017-12-09T00:05:59.385Z,95.10
2017-12-09T00:08:26.891Z,94.80
2017-12-09T00:10:54.415Z,94.70
2017-12-09T00:13:21.868Z,94.90
2017-12-09T00:15:49.356Z,95.00
2017-12-09T00:18:16.848Z,94.90
2017-12-09T00:20:44.366Z,94.30
2017-12-09T00:23:12.597Z,94.60
2017-12-09T00:25:40.057Z,94.60
2017-12-09T00:28:07.581Z,94.50
2017-12-09T00:30:35.096Z,94.60
2017-12-09T00:33:03.346Z,94.20
2017-12-09T00:35:30.796Z,94.20
2017-12-09T00:37:58.279Z,94.70
2017-12-09T00:40:25.830Z,94.50
2017-12-09T00:42:53.298Z,94.80
2017-12-09T00:45:20.750Z,94.90
2017-12-09T00:47:48.325Z,94.60
2017-12-09T00:50:16.557Z,93.70
2017-12-09T00:52:44.040Z,93.70
2017-12-09T00:55:12.271Z,93.50
2017-12-09T00:57:39.720Z,93.50
2017-12-09T01:00:07.252Z,93.40
2017-12-09T01:02:35.478Z,93.90
2017-12-09T01:05:02.964Z,93.90
2017-12-09T01:07:30.430Z,93.80
2017-12-09T01:09:58.670Z,94.30
2017-12-09T01:12:26.137Z,94.30
2017-12-09T01:14:53.610Z,94.10
2017-12-09T01:17:33.045Z,94.20
2017-12-09T01:20:00.515Z,94.00
2017-12-09T01:22:28.758Z,94.20
2017-12-09T01:24:56.215Z,94.20
2017-12-09T01:27:23.682Z,93.80
2017-12-09T01:29:51.156Z,94.20
2017-12-09T01:32:18.664Z,94.30
2017-12-09T01:34:46.130Z,94.30
2017-12-09T01:37:13.605Z,94.40
2017-12-09T01:39:41.089Z,94.20
2017-12-09T01:42:09.312Z,93.80
2017-12-09T01:44:36.781Z,93.70
2017-12-09T01:47:04.252Z,93.40
2017-12-09T01:49:31.744Z,93.70
2017-12-09T01:51:59.230Z,94.10
2017-12-09T01:54:26.684Z,93.60
2017-12-09T01:56:54.193Z,93.50
2017-12-09T01:59:21.657Z,93.90
2017-12-09T02:01:49.913Z,93.80
2017-12-09T02:04:17.388Z,93.50
2017-12-09T02:06:46.448Z,93.30
2017-12-09T02:09:13.917Z,93.40
2017-12-09T02:11:41.444Z,93.60
2017-12-09T02:14:08.913Z,93.70
2017-12-09T02:16:36.381Z,93.40
2017-12-09T02:19:03.857Z,93.40
2017-12-09T02:21:31.313Z,93.20
2017-12-09T02:23:58.780Z,93.40
2017-12-09T02:26:27.001Z,93.70
2017-12-09T02:28:54.481Z,93.40
2017-12-09T02:31:22.120Z,93.30
2017-12-09T02:33:49.725Z,93.20
2017-12-09T02:36:17.253Z,93.10
2017-12-09T02:38:44.705Z,92.80
2017-12-09T02:41:12.207Z,92.80
2017-12-09T02:43:39.681Z,92.90
2017-12-09T02:46:07.985Z,92.90
2017-12-09T02:48:35.461Z,93.00
2017-12-09T02:51:02.956Z,93.00
2017-12-09T02:53:31.409Z,93.10
2017-12-09T02:56:00.401Z,93.20
2017-12-09T02:58:27.892Z,93.10
2017-12-09T03:00:56.124Z,93.20
2017-12-09T03:03:23.609Z,93.20
2017-12-09T03:05:51.834Z,93.50
2017-12-09T03:08:19.780Z,93.40
2017-12-09T03:10:47.353Z,93.30
2017-12-09T03:13:14.965Z,93.40
2017-12-09T03:15:42.448Z,93.40
2017-12-09T03:18:10.916Z,93.50
2017-12-09T03:20:39.161Z,93.20
2017-12-09T03:23:06.625Z,93.40
2017-12-09T03:25:34.093Z,93.50
2017-12-09T03:28:02.326Z,93.50
2017-12-09T03:30:29.786Z,93.60
2017-12-09T03:32:57.318Z,93.60
2017-12-09T03:35:24.950Z,93.60
2017-12-09T03:37:53.234Z,93.40
2017-12-09T03:40:21.474Z,93.40
2017-12-09T03:42:48.929Z,93.40
2017-12-09T03:45:16.409Z,93.50
2017-12-09T03:47:43.864Z,93.50
2017-12-09T03:50:11.329Z,93.60
2017-12-09T03:52:39.558Z,93.50
2017-12-09T03:55:07.020Z,93.50
2017-12-09T03:57:34.538Z,93.60
2017-12-09T04:00:02.776Z,93.50
2017-12-09T04:02:30.277Z,93.50
2017-12-09T04:04:57.737Z,93.40
2017-12-09T04:07:25.219Z,93.50
2017-12-09T04:09:52.680Z,93.40
2017-12-09T04:12:20.150Z,93.30
2017-12-09T04:14:47.629Z,93.50
2017-12-09T04:17:15.101Z,93.50
2017-12-09T04:19:43.328Z,93.40
2017-12-09T04:22:10.792Z,93.40
2017-12-09T04:24:38.261Z,93.50
2017-12-09T04:27:05.773Z,93.60
2017-12-09T04:29:33.206Z,93.40
2017-12-09T04:32:01.425Z,93.40
2017-12-09T04:34:28.884Z,93.40
2017-12-09T04:36:56.341Z,93.40
2017-12-09T04:39:23.811Z,93.50
2017-12-09T04:41:51.299Z,93.60
2017-12-09T04:44:18.775Z,93.60
2017-12-09T04:46:46.421Z,93.70
2017-12-09T04:49:14.649Z,93.60
2017-12-09T04:51:42.129Z,93.50
2017-12-09T04:54:09.565Z,93.40
2017-12-09T04:56:37.029Z,93.50
2017-12-09T04:59:04.501Z,93.70
2017-12-09T05:01:31.973Z,93.60
2017-12-09T05:04:00.193Z,93.60
2017-12-09T05:06:27.662Z,93.60
2017-12-09T05:08:55.132Z,93.40
2017-12-09T05:11:22.589Z,93.40
2017-12-09T05:13:50.120Z,93.40
2017-12-09T05:16:17.592Z,93.20
2017-12-09T05:18:45.055Z,93.40
2017-12-09T05:21:12.544Z,93.30
2017-12-09T05:23:40.201Z,93.40
2017-12-09T05:26:07.752Z,93.30
2017-12-09T05:28:35.272Z,93.40
2017-12-09T05:31:02.733Z,93.50
2017-12-09T05:33:30.208Z,93.50
2017-12-09T05:35:57.665Z,93.30
2017-12-09T05:38:25.137Z,93.50
2017-12-09T05:40:52.615Z,93.20
2017-12-09T05:43:20.850Z,93.20
2017-12-09T05:45:48.317Z,93.20
2017-12-09T05:48:17.303Z,93.40
2017-12-09T05:50:44.762Z,93.30
2017-12-09T05:53:12.254Z,93.30
2017-12-09T05:55:40.485Z,93.40
2017-12-09T05:58:07.964Z,93.40
2017-12-09T06:00:35.436Z,93.40
2017-12-09T06:03:03.742Z,93.10
2017-12-09T06:05:31.209Z,93.00
2017-12-09T06:07:58.690Z,93.20
2017-12-09T06:10:26.363Z,93.20
2017-12-09T06:12:53.992Z,93.10
2017-12-09T06:15:21.444Z,93.20
2017-12-09T06:17:48.926Z,92.80
2017-12-09T06:20:16.456Z,93.10
2017-12-09T06:22:43.901Z,93.20
2017-12-09T06:25:11.381Z,93.50
2017-12-09T06:27:38.856Z,93.10
2017-12-09T06:30:06.316Z,93.00
2017-12-09T06:32:33.781Z,92.90
2017-12-09T06:35:01.279Z,93.10
2017-12-09T06:37:29.511Z,93.20
2017-12-09T06:39:56.980Z,93.20
2017-12-09T06:42:24.461Z,93.00
2017-12-09T06:44:52.699Z,92.90
2017-12-09T06:47:20.256Z,92.90
2017-12-09T06:49:47.777Z,93.20
2017-12-09T06:52:15.383Z,93.30
2017-12-09T06:54:42.890Z,93.10
2017-12-09T06:57:10.364Z,93.00
2017-12-09T06:59:37.842Z,93.10
2017-12-09T07:02:05.340Z,93.20
2017-12-09T07:04:33.610Z,92.90
2017-12-09T07:07:01.062Z,92.90
2017-12-09T07:09:29.481Z,93.20
2017-12-09T07:11:57.125Z,93.10
2017-12-09T07:14:25.362Z,93.50
2017-12-09T07:16:52.817Z,93.50
2017-12-09T07:19:20.313Z,93.60
2017-12-09T07:21:47.766Z,93.70
2017-12-09T07:24:15.245Z,94.10
2017-12-09T07:26:42.705Z,94.30
2017-12-09T07:29:10.169Z,94.70
2017-12-09T07:31:37.631Z,95.20
2017-12-09T07:34:05.108Z,95.40
2017-12-09T07:36:32.769Z,95.80
2017-12-09T07:39:00.228Z,95.90
2017-12-09T07:41:27.858Z,95.80
2017-12-09T07:43:55.342Z,95.80
2017-12-09T07:46:22.822Z,96.00
2017-12-09T07:48:51.051Z,96.40
2017-12-09T07:51:18.552Z,96.10
2017-12-09T07:53:46.026Z,96.20
2017-12-09T07:56:14.264Z,96.50
2017-12-09T07:58:41.725Z,96.50
2017-12-09T08:01:09.277Z,96.30
2017-12-09T08:03:36.729Z,96.50
2017-12-09T08:06:04.200Z,96.70
2017-12-09T08:08:32.691Z,96.60
2017-12-09T08:11:00.158Z,96.70
2017-12-09T08:13:28.420Z,96.80
2017-12-09T08:15:56.093Z,96.50
2017-12-09T08:18:24.335Z,96.20
2017-12-09T08:20:51.833Z,96.20
2017-12-09T08:23:20.092Z,96.30
2017-12-09T08:25:47.545Z,96.30
2017-12-09T08:28:15.022Z,96.00
2017-12-09T08:30:42.497Z,96.20
2017-12-09T08:33:09.964Z,96.40
2017-12-09T08:35:38.277Z,96.90
2017-12-09T08:38:05.752Z,97.00
2017-12-09T08:40:33.308Z,97.10
2017-12-09T08:43:00.986Z,97.20
2017-12-09T08:45:29.312Z,97.60
2017-12-09T08:47:56.776Z,97.60
2017-12-09T08:50:24.264Z,97.50
2017-12-09T08:52:51.841Z,97.70
2017-12-09T08:55:20.234Z,97.80
2017-12-09T08:57:47.715Z,97.80
2017-12-09T09:00:15.194Z,98.00
2017-12-09T09:02:42.660Z,98.10
2017-12-09T09:05:10.168Z,98.10
2017-12-09T09:07:37.797Z,98.20
2017-12-09T09:10:05.253Z,98.10
2017-12-09T09:12:33.480Z,97.70
2017-12-09T09:15:01.025Z,97.60
2017-12-09T09:17:28.504Z,97.60
2017-12-09T09:19:56.006Z,97.60
2017-12-09T09:22:24.343Z,97.90
2017-12-09T09:24:51.825Z,97.60
2017-12-09T09:27:19.513Z,97.60
2017-12-09T09:29:47.992Z,97.60
2017-12-09T09:32:15.537Z,97.60
2017-12-09T09:34:43.813Z,97.50
2017-12-09T09:37:11.282Z,97.50
2017-12-09T09:39:39.659Z,97.40
2017-12-09T09:42:08.061Z,97.20
2017-12-09T09:44:35.566Z,97.20
2017-12-09T09:47:03.053Z,97.10
2017-12-09T09:49:31.297Z,96.70
2017-12-09T09:51:58.856Z,96.70
2017-12-09T09:54:26.344Z,96.70
2017-12-09T09:56:54.593Z,96.50
2017-12-09T09:59:22.073Z,96.40
2017-12-09T10:01:50.335Z,95.90
2017-12-09T10:04:18.569Z,96.20
2017-12-09T10:06:46.053Z,96.40
2017-12-09T10:09:13.525Z,96.40
2017-12-09T10:11:40.998Z,96.50
2017-12-09T10:14:09.252Z,96.50
2017-12-09T10:16:37.510Z,96.60
2017-12-09T10:19:04.976Z,96.60
2017-12-09T10:21:32.509Z,96.70
2017-12-09T10:23:59.985Z,96.90
2017-12-09T10:26:27.457Z,97.00
2017-12-09T10:28:55.708Z,97.10
2017-12-09T10:31:23.247Z,97.10
2017-12-09T10:33:50.819Z,96.80
2017-12-09T10:36:18.306Z,96.70
2017-12-09T10:38:45.769Z,96.20
2017-12-09T10:41:13.300Z,96.20
2017-12-09T10:43:40.781Z,95.80
2017-12-09T10:46:08.315Z,95.60
2017-12-09T10:48:35.783Z,95.70
2017-12-09T10:51:03.370Z,95.40
2017-12-09T10:53:31.594Z,94.80
2017-12-09T10:55:59.073Z,94.80
2017-12-09T10:58:26.541Z,95.40
2017-12-09T11:00:54.090Z,94.50
2017-12-09T11:03:21.585Z,95.00
2017-12-09T11:05:49.063Z,94.60
2017-12-09T11:08:16.528Z,94.50
2017-12-09T11:10:44.219Z,94.60
2017-12-09T11:13:11.696Z,94.30
2017-12-09T11:15:39.937Z,94.00
2017-12-09T11:18:07.404Z,94.00
2017-12-09T11:20:35.049Z,93.90
2017-12-09T11:23:02.528Z,94.20
2017-12-09T11:25:29.991Z,94.30
2017-12-09T11:27:57.506Z,93.90
2017-12-09T11:30:24.970Z,94.50
2017-12-09T11:32:52.438Z,94.30
2017-12-09T11:35:19.931Z,94.40
2017-12-09T11:37:47.420Z,94.00
2017-12-09T11:40:14.904Z,94.00
2017-12-09T11:42:42.468Z,93.80
2017-12-09T11:45:09.933Z,93.80
2017-12-09T11:47:37.419Z,93.50
2017-12-09T11:50:05.008Z,94.00
2017-12-09T11:52:32.506Z,94.00
2017-12-09T11:54:59.969Z,93.70
2017-12-09T11:57:27.444Z,93.40
2017-12-09T11:59:54.927Z,93.70
2017-12-09T12:02:22.428Z,93.60
2017-12-09T12:04:49.967Z,93.60
2017-12-09T12:07:17.633Z,93.70
2017-12-09T12:09:45.348Z,93.90
2017-12-09T12:12:12.920Z,94.10
2017-12-09T12:14:40.444Z,93.60
2017-12-09T12:17:08.076Z,93.60
2017-12-09T12:19:35.565Z,93.80
2017-12-09T12:22:03.201Z,93.80
2017-12-09T12:24:30.674Z,93.90
2017-12-09T12:26:58.205Z,94.20
2017-12-09T12:29:25.687Z,93.60
2017-12-09T12:31:53.357Z,94.00
2017-12-09T12:34:20.833Z,93.80
2017-12-09T12:36:49.066Z,94.50
2017-12-09T12:39:16.668Z,94.50
2017-12-09T12:41:44.142Z,94.40
2017-12-09T12:44:12.397Z,94.20
2017-12-09T12:46:40.642Z,94.40
2017-12-09T12:49:08.144Z,94.40
2017-12-09T12:51:35.649Z,94.20
2017-12-09T12:54:03.164Z,94.10
2017-12-09T12:56:31.468Z,94.30
2017-12-09T12:58:59.015Z,94.30
2017-12-09T13:01:26.541Z,93.90
2017-12-09T13:03:54.839Z,93.90
2017-12-09T13:06:22.316Z,93.90
2017-12-09T13:08:49.775Z,94.00
2017-12-09T13:11:17.244Z,93.60
2017-12-09T13:13:44.720Z,93.20
2017-12-09T13:16:12.203Z,93.30
2017-12-09T13:18:39.658Z,93.00
2017-12-09T13:21:07.137Z,93.20
2017-12-09T13:23:34.607Z,93.40
2017-12-09T13:26:02.569Z,93.40
2017-12-09T13:28:30.094Z,93.50
2017-12-09T13:30:57.615Z,93.70
2017-12-09T13:33:25.274Z,93.60
2017-12-09T13:35:52.886Z,93.30
2017-12-09T13:38:21.116Z,93.50
2017-12-09T13:40:48.577Z,93.50
2017-12-09T13:43:16.055Z,93.50
2017-12-09T13:45:43.509Z,93.70
2017-12-09T13:48:11.016Z,93.50
2017-12-09T13:50:38.490Z,93.60
2017-12-09T13:53:05.975Z,93.70
2017-12-09T13:55:33.432Z,93.90
2017-12-09T13:58:00.916Z,93.80
2017-12-09T14:00:29.151Z,93.80
2017-12-09T14:02:56.632Z,93.90
2017-12-09T14:05:24.137Z,93.60
2017-12-09T14:07:51.595Z,93.80
2017-12-09T14:10:19.250Z,93.50
2017-12-09T14:12:46.706Z,93.60
2017-12-09T14:15:14.253Z,93.70
2017-12-09T14:17:42.461Z,93.50
2017-12-09T14:20:09.977Z,93.50
2017-12-09T14:22:37.521Z,93.50
2017-12-09T14:25:04.990Z,93.60
2017-12-09T14:27:33.263Z,93.70
2017-12-09T14:30:01.505Z,93.50
2017-12-09T14:32:29.080Z,93.50
2017-12-09T14:34:56.561Z,93.40
2017-12-09T14:37:24.967Z,93.40
2017-12-09T14:39:52.434Z,93.40
2017-12-09T14:42:19.922Z,93.60
2017-12-09T14:44:47.495Z,93.40
2017-12-09T14:47:15.043Z,93.40
2017-12-09T14:49:43.322Z,92.90
2017-12-09T14:52:11.553Z,92.90
2017-12-09T14:54:39.033Z,93.10
2017-12-09T14:57:06.490Z,93.00
2017-12-09T14:59:33.974Z,92.90
2017-12-09T15:02:01.498Z,93.10
2017-12-09T15:04:29.094Z,93.10
2017-12-09T15:06:56.609Z,92.80
2017-12-09T15:09:24.081Z,92.80
2017-12-09T15:11:52.566Z,92.90
2017-12-09T15:14:20.112Z,92.90
2017-12-09T15:16:47.585Z,92.90
2017-12-09T15:19:15.049Z,92.50
2017-12-09T15:21:42.517Z,92.70
2017-12-09T15:24:10.034Z,92.50
2017-12-09T15:26:37.528Z,92.60
2017-12-09T15:29:05.045Z,92.70
2017-12-09T15:31:32.533Z,92.70
2017-12-09T15:34:00.007Z,92.40
2017-12-09T15:36:28.242Z,92.70
2017-12-09T15:38:55.712Z,92.40
2017-12-09T15:41:23.193Z,92.30
2017-12-09T15:43:50.662Z,92.50
2017-12-09T15:46:18.976Z,92.20
2017-12-09T15:48:46.484Z,92.20
2017-12-09T15:51:15.481Z,92.70
2017-12-09T15:53:43.548Z,92.60
2017-12-09T15:56:11.016Z,92.60
2017-12-09T15:58:39.237Z,92.30
2017-12-09T16:01:06.722Z,92.30
2017-12-09T16:03:34.287Z,92.40
2017-12-09T16:06:01.825Z,92.40
2017-12-09T16:08:29.334Z,92.50
2017-12-09T16:10:56.845Z,92.60
2017-12-09T16:13:24.320Z,92.50
2017-12-09T16:15:51.796Z,92.30
2017-12-09T16:18:20.033Z,92.30
2017-12-09T16:20:47.499Z,92.20
2017-12-09T16:23:14.962Z,92.00
2017-12-09T16:25:42.424Z,92.10
2017-12-09T16:28:09.887Z,92.20
2017-12-09T16:30:37.355Z,92.10
2017-12-09T16:33:05.573Z,92.00
2017-12-09T16:35:33.052Z,92.00
2017-12-09T16:38:00.528Z,92.40
2017-12-09T16:40:29.495Z,91.80
2017-12-09T16:42:56.969Z,91.80
2017-12-09T16:45:24.734Z,92.00
2017-12-09T16:47:52.249Z,92.20
2017-12-09T16:50:19.724Z,91.90
2017-12-09T16:52:47.270Z,91.60
2017-12-09T16:55:14.745Z,91.60
2017-12-09T16:57:42.239Z,91.80
2017-12-09T17:00:10.486Z,91.50
2017-12-09T17:02:38.703Z,91.50
2017-12-09T17:05:06.187Z,91.60
2017-12-09T17:07:33.645Z,91.30
2017-12-09T17:10:01.108Z,91.10
2017-12-09T17:12:28.604Z,90.90
2017-12-09T17:14:56.065Z,90.70
2017-12-09T17:17:23.533Z,90.40
2017-12-09T17:19:51.773Z,90.60
2017-12-09T17:22:19.258Z,90.60
2017-12-09T17:24:47.473Z,91.00
2017-12-09T17:27:14.937Z,90.70
2017-12-09T17:29:42.415Z,90.30
2017-12-09T17:32:09.877Z,90.30
2017-12-09T17:34:37.349Z,90.20
2017-12-09T17:37:04.823Z,90.20
2017-12-09T17:39:33.132Z,90.40
2017-12-09T17:42:00.800Z,90.40
2017-12-09T17:44:28.450Z,90.40
2017-12-09T17:46:55.941Z,90.30
2017-12-09T17:49:23.440Z,90.20
2017-12-09T17:51:51.773Z,90.10
2017-12-09T17:54:19.245Z,90.10
2017-12-09T17:56:46.787Z,90.20
2017-12-09T17:59:14.257Z,90.10
2017-12-09T18:01:41.743Z,90.30
2017-12-09T18:04:10.040Z,89.50
2017-12-09T18:06:37.664Z,89.50
2017-12-09T18:09:05.321Z,90.20
2017-12-09T18:11:32.837Z,90.30
2017-12-09T18:14:00.405Z,90.10
2017-12-09T18:16:27.889Z,90.10
2017-12-09T18:18:55.357Z,90.10
2017-12-09T18:21:23.665Z,90.20
2017-12-09T18:23:51.125Z,90.40
2017-12-09T18:26:18.613Z,89.90
2017-12-09T18:28:46.497Z,90.30
2017-12-09T18:31:13.960Z,90.10
2017-12-09T18:33:41.437Z,90.40
2017-12-09T18:36:09.690Z,90.70
2017-12-09T18:38:37.164Z,90.70
2017-12-09T18:41:05.522Z,90.90
2017-12-09T18:43:32.997Z,90.90
2017-12-09T18:46:01.216Z,91.40
2017-12-09T18:48:28.695Z,91.10
2017-12-09T18:50:56.185Z,91.20
2017-12-09T18:53:23.649Z,91.40
2017-12-09T18:55:51.865Z,91.40
2017-12-09T18:58:19.338Z,91.30
2017-12-09T19:00:46.796Z,91.50
2017-12-09T19:03:14.289Z,91.60
2017-12-09T19:05:41.753Z,91.80
2017-12-09T19:08:09.979Z,91.90
2017-12-09T19:10:37.448Z,91.90
2017-12-09T19:13:04.916Z,91.70
2017-12-09T19:15:33.152Z,91.90
2017-12-09T19:18:00.816Z,91.90
2017-12-09T19:20:28.295Z,91.70
2017-12-09T19:22:55.755Z,91.70
2017-12-09T19:25:23.230Z,91.90
2017-12-09T19:27:50.719Z,91.60
2017-12-09T19:30:18.204Z,91.50
2017-12-09T19:32:45.687Z,91.50
2017-12-09T19:35:13.155Z,91.40
2017-12-09T19:37:40.624Z,91.40
2017-12-09T19:40:08.886Z,91.60
2017-12-09T19:42:36.357Z,91.20
2017-12-09T19:45:04.604Z,91.50
2017-12-09T19:47:32.074Z,91.50
2017-12-09T19:50:00.359Z,91.40
2017-12-09T19:52:28.677Z,91.50
2017-12-09T19:54:56.249Z,91.50
2017-12-09T19:57:23.750Z,91.30
2017-12-09T19:59:51.223Z,91.40
2017-12-09T20:02:19.477Z,91.10
2017-12-09T20:04:46.950Z,91.10
2017-12-09T20:07:14.413Z,91.30
2017-12-09T20:09:42.637Z,91.50
2017-12-09T20:12:10.132Z,91.50
2017-12-09T20:14:37.590Z,91.40
2017-12-09T20:17:05.051Z,91.40
2017-12-09T20:19:32.524Z,91.70
2017-12-09T20:22:00.760Z,91.50
2017-12-09T20:24:28.228Z,91.50
2017-12-09T20:26:55.677Z,91.40
2017-12-09T20:29:23.169Z,91.70
2017-12-09T20:31:51.401Z,91.60
2017-12-09T20:34:18.899Z,91.60
2017-12-09T20:36:47.156Z,91.90
2017-12-09T20:39:14.692Z,91.80
2017-12-09T20:41:42.173Z,91.70
2017-12-09T20:44:09.679Z,91.80
2017-12-09T20:46:37.149Z,91.80
2017-12-09T20:49:04.641Z,91.70
2017-12-09T20:51:32.109Z,91.60
2017-12-09T20:54:00.332Z,91.80
2017-12-09T20:56:27.804Z,91.80
2017-12-09T20:58:55.412Z,91.70
2017-12-09T21:01:23.649Z,91.90
2017-12-09T21:03:51.116Z,91.90
2017-12-09T21:06:18.665Z,92.10
2017-12-09T21:08:46.271Z,92.30
2017-12-09T21:11:13.724Z,92.20
2017-12-09T21:13:41.188Z,92.00
2017-12-09T21:16:08.667Z,92.10
2017-12-09T21:18:36.142Z,91.90
2017-12-09T21:21:04.313Z,91.90
2017-12-09T21:23:31.816Z,92.00
2017-12-09T21:26:00.114Z,91.90
2017-12-09T21:28:27.602Z,91.80
2017-12-09T21:30:55.082Z,92.10
2017-12-09T21:33:22.554Z,92.10
2017-12-09T21:35:50.006Z,92.00
2017-12-09T21:38:17.490Z,92.00
2017-12-09T21:40:45.729Z,92.00
2017-12-09T21:43:13.178Z,92.00
2017-12-09T21:45:40.656Z,92.00
2017-12-09T21:48:08.901Z,92.00
2017-12-09T21:50:36.382Z,92.00
2017-12-09T21:53:03.893Z,92.10
2017-12-09T21:55:31.382Z,92.20
2017-12-09T21:57:58.846Z,92.00
2017-12-09T22:00:26.380Z,92.00
2017-12-09T22:02:54.057Z,92.00
2017-12-09T22:05:21.540Z,92.10
2017-12-09T22:07:49.809Z,92.00
2017-12-09T22:10:17.327Z,92.00
2017-12-09T22:12:45.540Z,92.30
2017-12-09T22:15:13.060Z,92.10
2017-12-09T22:17:40.974Z,92.10
2017-12-09T22:20:09.223Z,92.00
2017-12-09T22:22:36.698Z,92.00
2017-12-09T22:25:04.170Z,92.00
2017-12-09T22:27:32.431Z,92.10
2017-12-09T22:30:00.701Z,91.90
2017-12-09T22:32:28.181Z,91.90
2017-12-09T22:34:55.673Z,92.20
2017-12-09T22:37:23.330Z,92.00
2017-12-09T22:39:50.796Z,92.00
2017-12-09T22:42:18.265Z,92.00
2017-12-09T22:44:45.749Z,92.30
2017-12-09T22:47:13.217Z,92.50
2017-12-09T22:49:41.452Z,92.30
2017-12-09T22:52:08.913Z,92.30
2017-12-09T22:54:36.398Z,92.10
2017-12-09T22:57:03.855Z,92.30
2017-12-09T22:59:31.325Z,92.40
2017-12-09T23:01:59.586Z,92.20
2017-12-09T23:04:27.049Z,92.20
2017-12-09T23:06:55.287Z,92.10
2017-12-09T23:09:22.770Z,92.10
2017-12-09T23:11:50.426Z,92.40
2017-12-09T23:14:17.937Z,92.60
2017-12-09T23:16:45.512Z,92.40
2017-12-09T23:19:13.007Z,92.40
2017-12-09T23:21:40.476Z,92.40
2017-12-09T23:24:08.699Z,92.40
2017-12-09T23:26:36.165Z,92.40
2017-12-09T23:29:03.634Z,92.50
2017-12-09T23:31:31.159Z,92.30
2017-12-09T23:33:59.353Z,92.40
2017-12-09T23:36:26.830Z,92.40
2017-12-09T23:38:54.304Z,92.40
2017-12-09T23:41:21.765Z,92.30
2017-12-09T23:43:50.006Z,92.40
2017-12-09T23:46:17.650Z,92.40
2017-12-09T23:48:45.305Z,92.40
2017-12-09T23:51:12.802Z,92.40
2017-12-09T23:53:40.437Z,92.40
2017-12-09T23:56:07.913Z,92.40
2017-12-09T23:58:35.432Z,92.50
